createdAt,value
2018-12-26T00:03:02.029Z,27.17
2018-12-26T00:08:14.790Z,26.37
2018-12-26T00:13:23.375Z,28.45
2018-12-26T00:18:32.406Z,27.30
2018-12-26T00:23:45.877Z,33.53
2018-12-26T00:28:59.470Z,30.07
2018-12-26T00:34:07.657Z,30.20
2018-12-26T00:39:21.475Z,29.60
2018-12-26T00:44:34.086Z,26.73
2018-12-26T00:49:46.691Z,29.63
2018-12-26T00:54:59.382Z,30.20
2018-12-26T01:00:13.464Z,28.20
2018-12-26T01:05:22.391Z,30.63
2018-12-26T01:10:31.432Z,28.87
2018-12-26T01:15:39.640Z,29.13
2018-12-26T01:20:50.626Z,30.97
2018-12-26T01:26:03.463Z,29.77
2018-12-26T01:31:13.895Z,27.03
2018-12-26T01:36:26.988Z,28.33
2018-12-26T01:41:39.686Z,30.83
2018-12-26T01:46:50.465Z,28.47
2018-12-26T01:52:03.044Z,28.10
2018-12-26T01:57:15.755Z,31.47
2018-12-26T02:02:23.988Z,28.27
2018-12-26T02:07:35.045Z,32.28
2018-12-26T02:12:48.786Z,34.30
2018-12-26T02:18:01.059Z,31.90
2018-12-26T02:23:14.181Z,34.87
2018-12-26T02:28:28.103Z,27.58
2018-12-26T02:33:37.203Z,30.23
2018-12-26T02:38:51.591Z,31.80
2018-12-26T02:43:58.780Z,31.83
2018-12-26T02:49:13.425Z,33.60
2018-12-26T02:54:25.715Z,32.73
2018-12-26T02:59:38.484Z,29.87
2018-12-26T03:04:50.965Z,30.43
2018-12-26T03:10:02.671Z,32.83
2018-12-26T03:15:11.762Z,34.50
2018-12-26T03:20:26.253Z,31.00
2018-12-26T03:25:34.388Z,34.13
2018-12-26T03:30:47.406Z,29.47
2018-12-26T03:36:01.231Z,35.30
2018-12-26T03:41:31.535Z,31.83
2018-12-26T03:46:45.859Z,34.13
2018-12-26T03:51:58.649Z,30.82
2018-12-26T03:57:08.516Z,35.07
2018-12-26T04:02:19.430Z,27.73
2018-12-26T04:07:34.001Z,29.80
2018-12-26T04:12:48.226Z,33.53
2018-12-26T04:17:53.418Z,30.83
2018-12-26T04:23:04.263Z,34.10
2018-12-26T04:28:18.518Z,32.47
2018-12-26T04:33:26.347Z,31.27
2018-12-26T04:38:33.808Z,36.37
2018-12-26T04:43:47.595Z,31.07
2018-12-26T04:48:59.917Z,33.80
2018-12-26T04:54:10.209Z,31.87
2018-12-26T04:59:17.951Z,36.77
2018-12-26T05:04:27.878Z,30.80
2018-12-26T05:09:36.920Z,32.07
2018-12-26T05:14:47.883Z,29.90
2018-12-26T05:19:54.709Z,30.97
2018-12-26T05:25:01.701Z,36.67
2018-12-26T05:31:09.975Z,32.33
2018-12-26T05:36:18.223Z,29.98
2018-12-26T05:41:29.935Z,28.42
2018-12-26T05:46:41.659Z,32.45
2018-12-26T05:51:52.748Z,30.60
2018-12-26T05:57:00.404Z,30.13
2018-12-26T06:02:11.100Z,28.70
2018-12-26T06:07:20.086Z,26.65
2018-12-26T06:12:33.007Z,27.60
2018-12-26T06:17:41.198Z,29.63
2018-12-26T06:22:50.084Z,26.43
2018-12-26T06:28:03.796Z,28.37
2018-12-26T06:33:10.721Z,27.23
2018-12-26T06:38:19.279Z,26.20
2018-12-26T06:43:32.040Z,30.33
2018-12-26T06:48:41.913Z,25.50
2018-12-26T06:53:51.159Z,24.70
2018-12-26T06:59:03.247Z,22.87
2018-12-26T07:04:17.659Z,24.03
2018-12-26T07:09:33.007Z,24.70
2018-12-26T07:14:41.353Z,26.93
2018-12-26T07:19:53.743Z,24.27
2018-12-26T07:25:06.871Z,25.07
2018-12-26T07:30:17.366Z,27.17
2018-12-26T07:35:24.629Z,31.87
2018-12-26T07:40:37.373Z,27.43
2018-12-26T07:45:52.357Z,31.00
2018-12-26T07:51:04.113Z,29.30
2018-12-26T07:56:17.705Z,30.65
2018-12-26T08:01:25.444Z,36.17
2018-12-26T08:06:39.012Z,39.70
2018-12-26T08:11:47.353Z,44.40
2018-12-26T08:16:59.204Z,44.47
2018-12-26T08:22:08.358Z,53.80
2018-12-26T08:27:20.940Z,49.37
2018-12-26T08:32:32.585Z,60.27
2018-12-26T08:37:45.957Z,56.90
2018-12-26T08:42:58.722Z,62.60
2018-12-26T08:48:08.697Z,60.93
2018-12-26T08:53:21.312Z,60.67
2018-12-26T08:58:35.167Z,64.30
2018-12-26T09:03:36.930Z,61.20
2018-12-26T09:08:46.806Z,75.22
2018-12-26T09:13:55.826Z,68.40
2018-12-26T09:19:10.700Z,66.05
2018-12-26T09:24:24.105Z,71.63
2018-12-26T09:29:37.547Z,76.67
2018-12-26T09:34:46.019Z,75.73
2018-12-26T09:39:58.448Z,79.10
2018-12-26T09:45:12.487Z,81.40
2018-12-26T09:50:22.987Z,65.47
2018-12-26T09:55:30.238Z,57.57
2018-12-26T10:00:40.167Z,70.23
2018-12-26T10:05:51.143Z,64.70
2018-12-26T10:11:00.111Z,67.50
2018-12-26T10:16:12.646Z,64.90
2018-12-26T10:21:23.484Z,67.27
2018-12-26T10:26:33.411Z,83.10
2018-12-26T10:31:45.095Z,75.67
2018-12-26T10:36:57.783Z,84.80
2018-12-26T10:42:10.577Z,74.67
2018-12-26T10:47:21.934Z,75.10
2018-12-26T10:52:33.468Z,77.97
2018-12-26T10:57:45.217Z,82.70
2018-12-26T11:02:55.219Z,88.90
2018-12-26T11:08:28.996Z,80.70
2018-12-26T11:13:39.770Z,71.63
2018-12-26T11:18:52.841Z,68.90
2018-12-26T11:24:03.667Z,65.33
2018-12-26T11:29:18.486Z,63.17
2018-12-26T11:34:27.246Z,67.25
2018-12-26T11:39:40.009Z,64.67
2018-12-26T11:44:51.883Z,64.70
2018-12-26T11:50:04.872Z,57.97
2018-12-26T11:55:20.630Z,58.73
2018-12-26T12:00:33.181Z,55.93
2018-12-26T12:05:50.283Z,62.80
2018-12-26T12:10:57.890Z,68.20
2018-12-26T12:16:09.319Z,51.00
2018-12-26T12:21:17.956Z,53.15
2018-12-26T12:26:28.777Z,56.97
2018-12-26T12:31:41.193Z,50.30
2018-12-26T12:36:53.776Z,49.10
2018-12-26T12:42:07.270Z,52.70
2018-12-26T12:47:17.166Z,44.77
2018-12-26T12:52:29.767Z,41.55
2018-12-26T12:57:46.091Z,45.97
2018-12-26T13:03:00.616Z,40.50
2018-12-26T13:08:13.230Z,41.87
2018-12-26T13:13:24.294Z,37.35
2018-12-26T13:18:38.244Z,40.10
2018-12-26T13:23:45.975Z,33.23
2018-12-26T13:28:55.108Z,36.43
2018-12-26T13:34:03.682Z,34.37
2018-12-26T13:39:17.447Z,30.73
2018-12-26T13:44:29.927Z,35.70
2018-12-26T13:49:41.644Z,29.57
2018-12-26T13:54:53.416Z,33.80
2018-12-26T14:00:07.052Z,35.28
2018-12-26T14:05:15.459Z,30.67
2018-12-26T14:10:26.990Z,30.08
2018-12-26T14:15:36.882Z,29.53
2018-12-26T14:20:55.605Z,26.90
2018-12-26T14:26:08.485Z,28.07
2018-12-26T14:31:20.489Z,27.62
2018-12-26T14:36:28.878Z,23.87
2018-12-26T14:41:42.446Z,29.13
2018-12-26T14:46:50.429Z,24.90
2018-12-26T14:52:03.416Z,21.87
2018-12-26T14:57:22.153Z,27.73
2018-12-26T15:02:29.734Z,26.30
2018-12-26T15:07:44.138Z,29.50
2018-12-26T15:12:53.955Z,27.03
2018-12-26T15:18:06.280Z,27.23
2018-12-26T15:23:21.673Z,25.57
2018-12-26T15:28:34.655Z,24.60
2018-12-26T15:33:48.745Z,25.33
2018-12-26T15:38:57.823Z,22.57
2018-12-26T15:44:04.674Z,25.70
2018-12-26T15:49:13.782Z,23.27
2018-12-26T15:54:24.780Z,21.87
2018-12-26T15:59:42.599Z,22.57
2018-12-26T16:04:54.308Z,23.63
2018-12-26T16:10:05.406Z,24.83
2018-12-26T16:15:14.622Z,28.90
2018-12-26T16:20:25.872Z,33.78
2018-12-26T16:25:33.393Z,37.03
2018-12-26T16:30:46.541Z,29.30
2018-12-26T16:35:57.768Z,28.83
2018-12-26T16:41:09.549Z,32.50
2018-12-26T16:46:22.303Z,40.30
2018-12-26T16:51:31.703Z,34.50
2018-12-26T16:56:41.500Z,32.10
2018-12-26T17:01:54.789Z,29.60
2018-12-26T17:07:04.316Z,36.33
2018-12-26T17:12:15.044Z,29.73
2018-12-26T17:17:24.675Z,35.98
2018-12-26T17:22:36.550Z,30.73
2018-12-26T17:27:52.453Z,26.23
2018-12-26T17:33:06.005Z,24.57
2018-12-26T17:38:15.383Z,26.37
2018-12-26T17:43:28.883Z,26.10
2018-12-26T17:48:39.684Z,27.10
2018-12-26T17:54:28.143Z,27.97
2018-12-26T17:59:55.259Z,29.57
2018-12-26T18:05:10.435Z,26.95
2018-12-26T18:10:17.766Z,24.20
2018-12-26T18:15:28.722Z,22.47
2018-12-26T18:20:40.808Z,22.33
2018-12-26T18:25:53.363Z,28.13
2018-12-26T18:31:02.567Z,24.90
2018-12-26T18:36:19.891Z,23.97
2018-12-26T18:41:28.943Z,29.10
2018-12-26T18:46:41.798Z,23.53
2018-12-26T18:51:50.280Z,25.87
2018-12-26T18:57:02.181Z,25.23
2018-12-26T19:02:17.765Z,22.93
2018-12-26T19:07:25.169Z,25.30
2018-12-26T19:12:38.669Z,27.20
2018-12-26T19:17:54.001Z,23.97
2018-12-26T19:23:06.539Z,24.77
2018-12-26T19:28:20.578Z,23.90
2018-12-26T19:33:29.884Z,25.27
2018-12-26T19:38:41.387Z,24.07
2018-12-26T19:43:51.398Z,27.83
2018-12-26T19:49:01.470Z,26.17
2018-12-26T19:54:13.274Z,28.70
2018-12-26T19:59:22.437Z,25.93
2018-12-26T20:04:33.892Z,28.73
2018-12-26T20:09:41.920Z,29.17
2018-12-26T20:14:53.606Z,28.43
2018-12-26T20:20:01.474Z,27.97
2018-12-26T20:25:09.817Z,30.23
2018-12-26T20:30:18.956Z,31.27
2018-12-26T20:35:29.073Z,31.70
2018-12-26T20:40:38.887Z,30.43
2018-12-26T20:45:52.454Z,32.43
2018-12-26T20:50:59.807Z,32.20
2018-12-26T20:56:14.479Z,32.97
2018-12-26T21:01:25.252Z,28.80
2018-12-26T21:06:38.825Z,32.53
2018-12-26T21:11:51.817Z,32.27
2018-12-26T21:17:02.663Z,31.97
2018-12-26T21:22:14.438Z,34.80
2018-12-26T21:27:25.318Z,35.38
2018-12-26T21:32:36.968Z,32.27
2018-12-26T21:37:46.047Z,31.87
2018-12-26T21:42:56.965Z,31.87
2018-12-26T21:48:04.968Z,32.97
2018-12-26T21:53:19.318Z,29.30
2018-12-26T21:58:33.163Z,31.20
2018-12-26T22:03:42.507Z,29.63
2018-12-26T22:08:49.912Z,28.93
2018-12-26T22:13:58.075Z,27.53
2018-12-26T22:19:04.527Z,31.00
2018-12-26T22:24:14.624Z,30.83
2018-12-26T22:29:27.340Z,24.40
2018-12-26T22:34:38.093Z,29.13
2018-12-26T22:39:55.788Z,29.33
2018-12-26T22:45:06.578Z,27.13
2018-12-26T22:50:17.414Z,32.30
2018-12-26T22:55:29.957Z,28.85
2018-12-26T23:00:47.914Z,27.63
2018-12-26T23:06:03.690Z,28.93
2018-12-26T23:11:20.913Z,26.23
2018-12-26T23:16:33.928Z,30.47
2018-12-26T23:21:47.451Z,23.77
2018-12-26T23:27:00.004Z,24.73
2018-12-26T23:32:14.311Z,25.47
2018-12-26T23:37:27.962Z,24.60
2018-12-26T23:42:35.324Z,28.07
2018-12-26T23:47:45.028Z,31.50
2018-12-26T23:52:52.443Z,25.77
2018-12-26T23:58:07.199Z,27.20
